Time;durP1;ratioP1;P1;durP2;ratioP2;P2;SDS_P1;SDS_P2;PMS_P1;PMS_P2;Temp;Humidity;BMP_temperature;BMP_pressure;BME280_temperature;BME280_humidity;BME280_pressure;Samples;Min_cycle;Max_cycle;Signal;HPM_P1;HPM_P2
2023/06/17 00:01:15;;;;;;;;;;;;;;;;;;;;;
2023/06/17 00:04:28;;;;;;;15.90;14.50;;;;;;;15.17;63.02;100081.85;111221;1260;22354;-86
2023/06/17 00:06:57;;;;;;;13.80;12.60;;;;;;;15.15;63.13;100081.80;111088;1260;23790;-85
2023/06/17 00:09:31;;;;;;;13.40;12.20;;;;;;;15.13;63.23;100079.11;111067;1260;23717;-84
2023/06/17 00:12:13;;;;;;;14.10;12.80;;;;;;;15.09;63.26;100077.27;111174;1260;23727;-83
2023/06/17 00:18:39;;;;;;;13.00;11.70;;;;;;;14.98;63.71;100076.19;110560;1266;23038;-86
2023/06/17 00:21:20;;;;;;;14.40;11.90;;;;;;;14.92;63.85;100075.16;110632;1266;24386;-86
2023/06/17 00:23:59;;;;;;;15.10;13.20;;;;;;;14.89;63.78;100074.98;110508;1266;21976;-85
2023/06/17 00:26:43;;;;;;;16.70;15.20;;;;;;;14.84;63.80;100075.61;110431;1266;21971;-85
2023/06/17 00:29:12;;;;;;;;;;;;;;;14.81;64.04;100071.95;110385;1266;23705;-86
2023/06/17 00:31:45;;;;;;;17.10;15.40;;;;;;;14.69;64.46;100073.17;110594;1260;23624;-84
2023/06/17 00:34:28;;;;;;;20.50;18.70;;;;;;;14.66;64.47;100071.77;110595;1265;22218;-85
2023/06/17 00:37:23;;;;;;;20.00;18.20;;;;;;;14.65;64.70;100068.35;110164;1269;23085;-84
2023/06/17 00:40:13;;;;;;;19.10;16.80;;;;;;;14.58;64.70;100068.02;107848;1270;2999900;-85
2023/06/17 00:43:01;;;;;;;19.80;18.20;;;;;;;14.55;64.85;100072.03;109604;1271;23081;-84
2023/06/17 00:45:42;;;;;;;19.50;17.80;;;;;;;14.52;65.08;100071.69;109788;1261;22014;-86
2023/06/17 00:48:25;;;;;;;22.10;19.90;;;;;;;14.50;64.99;100070.42;109742;1270;21998;-83
2023/06/17 00:51:05;;;;;;;17.20;15.60;;;;;;;14.45;65.22;100072.59;109913;1269;21973;-84
2023/06/17 00:53:40;;;;;;;15.40;14.00;;;;;;;14.43;65.38;100070.27;109785;1270;22408;-84
2023/06/17 00:56:28;;;;;;;15.40;14.00;;;;;;;14.41;65.41;100070.40;110577;1252;21943;-83
2023/06/17 00:59:03;;;;;;;15.70;13.80;;;;;;;14.39;65.73;100069.45;110560;1265;22825;-83
2023/06/17 01:01:47;;;;;;;14.90;13.50;;;;;;;14.38;65.79;100067.95;110546;1262;23759;-85
2023/06/17 01:04:35;;;;;;;14.40;13.10;;;;;;;14.34;65.88;100063.80;110498;1265;23641;-86
2023/06/17 01:07:40;;;;;;;13.80;12.40;;;;;;;14.32;65.93;100063.95;110638;1264;22342;-85
2023/06/17 01:10:20;;;;;;;14.20;13.00;;;;;;;14.28;66.18;100061.71;110372;1265;21975;-84
2023/06/17 01:13:04;;;;;;;13.90;12.10;;;;;;;14.29;66.32;100058.48;110567;1265;21982;-85
2023/06/17 01:15:37;;;;;;;14.40;12.90;;;;;;;14.27;66.33;100058.61;110217;1259;22016;-85
2023/06/17 01:18:23;;;;;;;14.90;13.00;;;;;;;14.25;66.46;100058.89;110391;1265;22294;-85
2023/06/17 01:20:58;;;;;;;14.10;12.80;;;;;;;14.23;66.52;100060.56;109780;1271;23821;-84
2023/06/17 01:23:43;;;;;;;16.50;15.10;;;;;;;14.21;66.74;100058.77;109491;1275;23064;-86
2023/06/17 01:26:40;;;;;;;17.00;15.50;;;;;;;14.21;66.82;100063.13;109424;1275;22012;-85
2023/06/17 01:29:16;;;;;;;16.70;15.20;;;;;;;14.20;67.09;100062.84;109726;1270;22754;-86
2023/06/17 01:32:03;;;;;;;16.90;15.50;;;;;;;14.22;67.50;100064.30;109646;1270;23627;-86
2023/06/17 01:35:06;;;;;;;16.00;14.60;;;;;;;14.24;67.79;100061.75;109957;1270;23637;-87
2023/06/17 01:38:11;;;;;;;16.00;14.60;;;;;;;14.27;68.00;100063.36;109867;1270;23721;-85
2023/06/17 01:40:46;;;;;;;15.30;14.10;;;;;;;14.26;68.05;100063.05;109727;1266;22157;-82
2023/06/17 01:43:32;;;;;;;16.00;14.40;;;;;;;14.26;68.10;100058.35;110147;1265;23141;-82
2023/06/17 01:46:11;;;;;;;16.80;15.30;;;;;;;14.26;68.22;100056.05;110545;1260;24276;-85
2023/06/17 01:48:57;;;;;;;20.80;19.10;;;;;;;14.23;68.21;100062.14;110430;1266;23598;-81
2023/06/17 01:51:35;;;;;;;;;;;;;;;14.22;68.24;100063.80;110447;1266;21958;-83
2023/06/17 01:54:07;;;;;;;26.70;24.40;;;;;;;14.12;68.53;100063.52;110442;1267;21996;-83
2023/06/17 01:56:46;;;;;;;28.10;25.70;;;;;;;14.09;68.49;100061.05;110449;1266;23799;-83
2023/06/17 01:59:34;;;;;;;28.20;25.50;;;;;;;14.07;68.31;100060.63;110386;1266;21974;-83
2023/06/17 02:02:26;;;;;;;32.80;30.00;;;;;;;14.04;68.49;100061.84;110396;1266;21965;-84
2023/06/17 02:05:12;;;;;;;32.20;29.50;;;;;;;14.04;68.65;100058.70;109436;1273;23616;-83
2023/06/17 02:07:44;;;;;;;30.50;28.10;;;;;;;14.03;68.66;100065.07;109888;1267;21951;-83
2023/06/17 02:10:24;;;;;;;27.80;25.30;;;;;;;14.01;68.78;100064.25;110122;1270;23602;-85
2023/06/17 02:13:07;;;;;;;21.10;19.40;;;;;;;14.00;68.71;100060.67;109517;1271;22753;-83
2023/06/17 02:15:47;;;;;;;19.00;17.40;;;;;;;13.99;68.90;100065.12;109724;1272;21984;-83
2023/06/17 02:18:22;;;;;;;19.70;17.90;;;;;;;13.98;68.98;100065.13;109649;1272;23036;-83
2023/06/17 02:21:03;;;;;;;18.40;17.00;;;;;;;13.97;69.07;100066.63;109598;1272;22040;-84
2023/06/17 02:23:37;;;;;;;21.30;19.30;;;;;;;13.96;69.18;100065.27;109862;1268;21991;-83
2023/06/17 02:26:15;;;;;;;20.00;18.30;;;;;;;13.93;69.02;100065.06;110267;1268;22008;-85
2023/06/17 02:29:04;;;;;;;19.00;17.30;;;;;;;13.87;68.99;100066.28;110644;1264;23619;-83
2023/06/17 02:31:36;;;;;;;;;;;;;;;13.84;69.04;100065.94;110916;1260;21984;-83
2023/06/17 02:34:16;;;;;;;20.70;19.10;;;;;;;13.69;69.02;100064.85;111150;1249;23044;-84
2023/06/17 02:37:01;;;;;;;;;;;;;;;;;;;;;
2023/06/17 02:39:32;;;;;;;18.60;17.00;;;;;;;13.62;69.13;100065.55;110273;1267;21812;-84
2023/06/17 02:42:11;;;;;;;19.60;17.90;;;;;;;13.61;69.30;100068.42;110072;1267;21989;-83
2023/06/17 02:44:46;;;;;;;19.30;17.60;;;;;;;13.60;69.59;100074.23;109683;1272;21988;-83
2023/06/17 02:47:16;;;;;;;19.90;18.10;;;;;;;13.61;69.65;100076.64;109592;1272;21993;-83
2023/06/17 02:49:54;;;;;;;21.20;19.30;;;;;;;13.64;70.00;100075.92;109648;1272;22001;-82
2023/06/17 02:52:27;;;;;;;19.80;17.90;;;;;;;13.67;70.07;100076.67;109471;1272;22049;-83
2023/06/17 02:55:13;;;;;;;19.00;17.40;;;;;;;13.69;70.24;100076.93;109223;1271;22118;-83
2023/06/17 02:57:49;;;;;;;20.20;18.30;;;;;;;13.71;70.31;100074.71;109600;1270;22735;-82
2023/06/17 03:00:18;;;;;;;19.40;17.80;;;;;;;13.72;70.34;100077.08;109402;1274;21998;-83
2023/06/17 03:03:00;;;;;;;;;;;;;;;13.72;70.63;100076.94;109621;1269;22754;-83
2023/06/17 03:05:36;;;;;;;19.80;18.10;;;;;;;13.64;71.05;100075.23;110018;1270;21977;-83
2023/06/17 03:08:14;;;;;;;19.40;17.90;;;;;;;13.67;71.05;100073.17;109397;1273;22004;-84
2023/06/17 03:10:52;;;;;;;19.70;18.20;;;;;;;13.71;71.16;100073.50;109604;1273;22017;-85
2023/06/17 03:13:21;;;;;;;19.90;18.40;;;;;;;13.76;71.19;100074.61;109882;1269;22304;-82
2023/06/17 03:15:58;;;;;;;20.00;18.50;;;;;;;13.81;71.26;100075.35;109890;1270;23614;-82
2023/06/17 03:18:28;;;;;;;21.00;19.30;;;;;;;13.85;71.22;100074.30;109442;1273;22301;-83
2023/06/17 03:21:15;;;;;;;20.20;18.60;;;;;;;13.84;71.07;100068.53;109168;1277;22064;-84
2023/06/17 03:23:59;;;;;;;20.80;19.00;;;;;;;13.87;71.31;100069.60;109127;1277;22510;-84
2023/06/17 03:26:48;;;;;;;;;;;;;;;;;;;;;
2023/06/17 03:29:39;;;;;;;21.80;19.80;;;;;;;13.96;71.63;100064.02;109599;1261;21980;-85
2023/06/17 03:32:19;;;;;;;22.10;20.10;;;;;;;14.00;71.66;100065.89;109422;1273;21984;-84
2023/06/17 03:35:02;;;;;;;20.30;18.50;;;;;;;14.06;71.50;100063.64;109453;1273;23886;-84
2023/06/17 03:37:35;;;;;;;19.70;17.80;;;;;;;14.12;71.60;100064.18;110091;1268;21955;-85
2023/06/17 03:40:11;;;;;;;20.60;18.60;;;;;;;14.18;71.59;100067.67;110079;1268;22006;-85
2023/06/17 03:42:49;;;;;;;20.00;18.30;;;;;;;14.27;71.48;100071.59;109641;1272;22002;-84
2023/06/17 03:45:33;;;;;;;21.00;19.40;;;;;;;14.34;71.36;100073.06;109851;1269;22028;-83
2023/06/17 03:48:05;;;;;;;;;;;;;;;14.41;71.33;100075.49;109680;1274;21957;-85
2023/06/17 03:50:46;;;;;;;20.40;18.70;;;;;;;14.40;71.65;100077.30;109408;1274;22058;-85
2023/06/17 03:53:19;;;;;;;19.80;17.80;;;;;;;14.46;71.36;100074.16;109385;1271;23042;-83
2023/06/17 03:55:52;;;;;;;20.90;19.20;;;;;;;14.50;71.12;100071.81;109712;1274;22017;-85
2023/06/17 03:58:30;;;;;;;19.40;17.80;;;;;;;14.60;70.82;100073.90;109725;1271;21984;-84
2023/06/17 04:01:02;;;;;;;20.90;19.00;;;;;;;14.63;70.89;100077.00;109924;1266;21980;-84
2023/06/17 04:03:33;;;;;;;21.70;19.70;;;;;;;14.71;70.79;100076.41;110085;1262;22988;-82
2023/06/17 04:06:12;;;;;;;21.20;19.20;;;;;;;14.78;70.67;100078.95;110283;1265;22448;-82
2023/06/17 04:08:53;;;;;;;20.20;18.40;;;;;;;14.85;70.66;100076.77;109817;1271;22987;-83
2023/06/17 04:11:32;;;;;;;20.30;18.60;;;;;;;14.91;70.49;100071.84;109862;1270;22001;-84
2023/06/17 04:14:03;;;;;;;20.20;18.30;;;;;;;14.97;70.38;100070.27;110043;1271;21997;-85
2023/06/17 04:16:56;;;;;;;21.50;19.60;;;;;;;15.08;70.47;100072.42;109364;1276;22013;-83
2023/06/17 04:19:37;;;;;;;20.10;18.30;;;;;;;15.22;70.42;100065.42;108904;1281;21995;-86
2023/06/17 04:22:25;;;;;;;21.30;18.60;;;;;;;15.34;70.27;100068.67;108934;1281;22016;-86
2023/06/17 04:25:05;;;;;;;18.70;17.20;;;;;;;15.48;70.04;100063.45;108791;1280;23570;-84
2023/06/17 04:27:41;;;;;;;18.70;17.20;;;;;;;15.62;69.73;100065.25;108890;1280;22019;-85
2023/06/17 04:30:29;;;;;;;19.90;17.90;;;;;;;15.78;69.70;100065.27;108946;1280;21991;-85
2023/06/17 04:33:04;;;;;;;19.40;17.80;;;;;;;15.98;69.64;100063.86;108964;1280;21998;-85
2023/06/17 04:35:41;;;;;;;19.90;18.10;;;;;;;16.13;68.93;100062.50;108997;1277;22001;-85
2023/06/17 04:38:30;;;;;;;17.90;16.30;;;;;;;16.29;68.69;100060.05;109697;1271;21990;-84
2023/06/17 04:41:08;;;;;;;19.40;17.50;;;;;;;16.52;68.90;100062.89;109674;1271;23676;-85
2023/06/17 04:43:53;;;;;;;16.70;15.30;;;;;;;16.83;68.66;100067.49;109747;1272;22042;-85
2023/06/17 04:46:28;;;;;;;16.90;15.60;;;;;;;17.16;68.32;100066.51;109827;1271;22007;-86
2023/06/17 04:49:06;;;;;;;17.40;15.80;;;;;;;17.40;67.32;100061.61;109727;1271;22015;-88
2023/06/17 04:51:52;;;;;;;17.50;16.10;;;;;;;17.77;67.00;100066.78;110302;1265;23723;-86
2023/06/17 04:54:30;;;;;;;17.50;16.00;;;;;;;18.10;66.02;100064.84;110592;1252;23750;-85
2023/06/17 04:57:07;;;;;;;15.10;14.00;;;;;;;18.51;65.60;100063.58;110645;1265;22898;-87
2023/06/17 04:59:58;;;;;;;15.00;13.90;;;;;;;18.95;64.80;100061.67;110705;1265;21971;-87
2023/06/17 05:02:32;;;;;;;14.20;13.10;;;;;;;19.30;63.55;100056.84;110124;1265;21954;-89
2023/06/17 05:05:29;;;;;;;14.10;13.00;;;;;;;19.69;62.03;100061.69;110576;1262;21978;-87
2023/06/17 05:08:17;;;;;;;15.50;13.10;;;;;;;20.02;61.19;100069.66;110780;1262;23017;-86
2023/06/17 05:11:15;;;;;;;15.10;12.50;;;;;;;20.43;60.88;100072.77;110671;1262;21971;-86
2023/06/17 05:14:09;;;;;;;14.00;12.50;;;;;;;20.88;59.25;100072.23;110701;1262;21988;-87
2023/06/17 05:16:55;;;;;;;13.20;12.10;;;;;;;21.21;58.16;100068.02;110589;1262;24414;-86
2023/06/17 05:19:49;;;;;;;11.40;10.60;;;;;;;21.49;57.15;100067.83;110590;1262;21974;-86
2023/06/17 05:22:36;;;;;;;11.30;10.30;;;;;;;21.85;56.39;100070.91;110872;1258;23628;-85
2023/06/17 05:25:11;;;;;;;12.30;11.10;;;;;;;22.17;55.60;100071.73;110577;1262;21985;-86
2023/06/17 05:28:06;;;;;;;11.20;10.20;;;;;;;22.42;54.26;100073.00;109810;1268;22426;-86
2023/06/17 05:30:43;;;;;;;10.90;9.50;;;;;;;22.59;53.54;100071.09;110350;1266;23130;-86
2023/06/17 05:33:32;;;;;;;12.30;8.90;;;;;;;22.86;53.30;100073.77;110423;1266;21987;-87
2023/06/17 05:36:24;;;;;;;13.10;9.70;;;;;;;23.06;52.76;100073.14;110080;1266;22039;-87
2023/06/17 05:39:17;;;;;;;9.70;8.90;;;;;;;23.38;52.16;100075.79;110578;1266;22111;-89
2023/06/17 05:41:57;;;;;;;9.90;8.90;;;;;;;23.48;50.70;100072.48;110212;1266;21976;-88
2023/06/17 05:44:32;;;;;;;9.40;8.50;;;;;;;23.69;51.29;100072.97;110064;1266;22217;-86
2023/06/17 05:47:07;;;;;;;10.50;9.50;;;;;;;24.03;50.80;100073.71;110971;1260;23021;-85
2023/06/17 05:49:45;;;;;;;9.40;8.60;;;;;;;24.27;49.35;100078.46;110980;1260;24101;-86
2023/06/17 05:52:24;;;;;;;8.50;7.80;;;;;;;24.32;48.53;100081.82;110902;1260;22426;-87
2023/06/17 05:55:13;;;;;;;10.10;9.20;;;;;;;24.38;48.35;100083.45;111150;1260;22748;-84
2023/06/17 05:57:54;;;;;;;9.00;8.20;;;;;;;24.52;48.54;100082.77;111132;1260;23034;-85
2023/06/17 06:00:48;;;;;;;11.90;9.20;;;;;;;24.72;48.16;100086.95;111208;1260;23637;-85
2023/06/17 06:03:32;;;;;;;8.90;8.10;;;;;;;25.02;48.46;100088.52;111126;1260;21947;-86
2023/06/17 06:06:01;;;;;;;12.10;8.60;;;;;;;25.35;47.33;100086.94;111016;1260;21968;-85
2023/06/17 06:08:35;;;;;;;14.20;8.50;;;;;;;25.55;46.37;100086.33;111114;1260;21965;-85
2023/06/17 06:11:20;;;;;;;8.40;7.70;;;;;;;25.64;45.56;100083.13;110861;1264;21983;-85
2023/06/17 06:13:56;;;;;;;9.60;8.10;;;;;;;25.78;45.80;100084.20;110212;1269;22112;-86
2023/06/17 06:16:36;;;;;;;8.40;7.70;;;;;;;25.87;45.08;100082.54;109934;1270;22514;-85
2023/06/17 06:19:26;;;;;;;9.20;8.40;;;;;;;26.10;45.60;100085.77;110182;1270;21857;-83
2023/06/17 06:22:15;;;;;;;8.10;7.40;;;;;;;26.39;44.09;100081.30;110053;1270;23947;-84
2023/06/17 06:25:21;;;;;;;9.30;8.50;;;;;;;26.48;43.17;100080.86;109954;1269;23634;-86
2023/06/17 06:28:01;;;;;;;9.40;8.50;;;;;;;26.38;42.87;100077.77;109741;1272;21978;-85
2023/06/17 06:30:41;;;;;;;7.80;7.10;;;;;;;26.52;43.69;100081.83;109776;1271;21984;-81
2023/06/17 06:33:11;;;;;;;7.90;7.10;;;;;;;26.72;43.07;100082.88;110191;1267;22432;-80
2023/06/17 06:35:48;;;;;;;8.30;7.50;;;;;;;26.94;43.00;100087.42;110337;1267;22184;-80
2023/06/17 06:38:34;;;;;;;8.00;7.30;;;;;;;27.26;42.74;100088.52;109621;1273;21992;-81
2023/06/17 06:41:08;;;;;;;8.10;7.40;;;;;;;27.50;41.72;100087.77;109427;1273;21997;-82
2023/06/17 06:43:51;;;;;;;7.10;6.50;;;;;;;27.62;41.10;100088.71;109461;1273;22003;-81
2023/06/17 06:46:23;;;;;;;8.60;7.80;;;;;;;27.71;40.92;100086.28;109604;1261;22763;-82
2023/06/17 06:48:56;;;;;;;7.40;6.80;;;;;;;27.93;40.42;100088.20;109593;1273;23715;-82
2023/06/17 06:51:26;;;;;;;6.00;5.40;;;;;;;28.10;39.42;100085.70;109740;1273;22454;-80
2023/06/17 06:54:06;;;;;;;5.30;4.90;;;;;;;28.18;39.44;100085.14;109535;1273;21961;-82
2023/06/17 06:56:37;;;;;;;11.50;5.10;;;;;;;28.29;38.74;100088.35;109669;1273;22006;-83
2023/06/17 06:59:10;;;;;;;;;;;;;;;28.31;38.85;100090.10;109730;1271;22893;-82
2023/06/17 07:01:40;;;;;;;8.50;5.20;;;;;;;28.32;38.95;100093.14;109455;1273;22582;-84
2023/06/17 07:04:14;;;;;;;5.50;5.10;;;;;;;28.34;38.32;100089.55;109746;1266;22203;-83
2023/06/17 07:07:31;;;;;;;;;;;;;;;;;;;;;
2023/06/17 07:10:20;;;;;;;5.50;5.10;;;;;;;28.44;38.37;100088.35;110476;1262;22137;-83
2023/06/17 07:12:53;;;;;;;5.70;5.20;;;;;;;28.66;38.23;100090.88;110427;1265;23510;-81
2023/06/17 07:19:15;;;;;;;8.20;6.50;;;;;;;28.91;37.43;100093.01;109497;1275;21995;-82
2023/06/17 07:22:21;;;;;;;5.80;5.00;;;;;;;28.93;37.34;100090.89;109297;1275;22023;-81
2023/06/17 07:24:51;;;;;;;5.60;4.80;;;;;;;29.08;37.48;100096.40;109362;1270;21985;-80
2023/06/17 07:27:25;;;;;;;5.20;4.60;;;;;;;29.27;36.94;100096.23;109317;1264;22061;-82
2023/06/17 07:29:58;;;;;;;5.80;5.20;;;;;;;29.32;35.78;100097.30;109307;1276;23042;-82
2023/06/17 07:32:27;;;;;;;5.70;5.20;;;;;;;29.25;36.08;100095.42;109399;1276;22163;-82
2023/06/17 07:35:03;;;;;;;4.50;4.10;;;;;;;29.24;36.30;100092.02;108918;1281;21963;-80
2023/06/17 07:37:34;;;;;;;4.70;4.30;;;;;;;29.30;36.12;100092.21;108962;1281;22521;-83
2023/06/17 07:40:11;;;;;;;4.20;3.80;;;;;;;29.37;35.59;100087.42;108961;1281;23078;-81
2023/06/17 07:42:53;;;;;;;6.00;4.00;;;;;;;29.53;35.70;100089.33;109023;1277;21991;-82
2023/06/17 07:45:23;;;;;;;6.00;4.40;;;;;;;29.68;34.95;100088.84;108810;1285;22091;-82
2023/06/17 07:47:52;;;;;;;5.90;4.20;;;;;;;29.74;34.67;100087.53;108974;1281;22588;-82
2023/06/17 07:50:30;;;;;;;4.10;3.70;;;;;;;29.76;34.31;100082.92;109002;1278;21949;-82
2023/06/17 07:53:07;;;;;;;3.80;3.40;;;;;;;29.82;34.11;100085.27;109292;1272;23479;-81
2023/06/17 07:55:39;;;;;;;6.10;3.70;;;;;;;29.87;33.93;100085.94;109920;1265;24313;-82
2023/06/17 07:58:10;;;;;;;4.40;3.30;;;;;;;29.89;33.74;100083.54;110542;1265;23632;-81
2023/06/17 08:00:45;;;;;;;3.70;3.30;;;;;;;29.90;33.71;100082.83;110872;1265;23612;-82
2023/06/17 08:03:15;;;;;;;5.70;4.00;;;;;;;30.09;33.81;100086.42;110721;1259;22046;-82
2023/06/17 08:05:44;;;;;;;4.00;3.60;;;;;;;30.20;33.10;100080.27;111152;1259;21994;-80
2023/06/17 08:08:43;;;;;;;4.40;4.00;;;;;;;30.30;32.93;100075.54;111837;1252;21965;-79
2023/06/17 08:11:14;;;;;;;4.20;3.50;;;;;;;30.43;32.76;100072.10;111526;1260;21970;-83
2023/06/17 08:13:58;;;;;;;3.10;2.80;;;;;;;30.55;32.06;100068.33;112136;1256;21970;-82
2023/06/17 08:17:17;;;;;;;3.40;2.90;;;;;;;30.44;31.34;100072.13;111145;1265;22628;-83
2023/06/17 08:24:35;;;;;;;5.80;3.40;;;;;;;29.57;33.12;100071.13;110324;1265;23009;-82
2023/06/17 08:27:47;;;;;;;8.80;6.40;;;;;;;29.89;33.01;100068.90;109592;1273;21996;-82
2023/06/17 08:30:57;;;;;;;4.30;3.50;;;;;;;30.17;32.09;100063.14;109631;1273;21985;-81
2023/06/17 08:33:48;;;;;;;5.00;3.30;;;;;;;30.31;31.62;100064.08;109540;1270;23746;-82
2023/06/17 08:36:51;;;;;;;;;;;;;;;;;;;;;
2023/06/17 08:40:03;;;;;;;3.90;2.60;;;;;;;29.66;30.39;100071.40;109855;1267;21997;-82
2023/06/17 08:43:17;;;;;;;;;;;;;;;;;;;;;
2023/06/17 08:46:57;;;;;;;;;;;;;;;;;;;;;
2023/06/17 08:49:46;;;;;;;3.30;3.00;;;;;;;29.40;31.71;100074.03;109296;1267;23037;-85
2023/06/17 08:52:40;;;;;;;6.40;3.50;;;;;;;29.55;31.23;100072.97;109684;1276;23750;-82
2023/06/17 09:00:35;;;;;;;4.50;3.60;;;;;;;28.74;31.65;100074.52;110190;1241;21953;-79
2023/06/17 09:03:26;;;;;;;5.10;3.90;;;;;;;28.02;32.41;100068.90;109689;1276;21983;-84
2023/06/17 09:06:39;;;;;;;8.10;4.40;;;;;;;27.54;33.45;100069.48;109206;1276;21987;-82
2023/06/17 09:09:33;;;;;;;5.80;4.60;;;;;;;26.98;34.53;100071.91;109279;1276;22000;-81
2023/06/17 09:12:27;;;;;;;4.90;4.30;;;;;;;26.53;35.31;100071.16;109149;1276;22014;-80
2023/06/17 09:15:23;;;;;;;5.80;4.50;;;;;;;26.21;36.43;100073.90;108781;1282;21992;-83
2023/06/17 09:18:10;;;;;;;5.40;4.20;;;;;;;26.03;36.66;100072.96;108821;1282;22028;-83
2023/06/17 09:21:25;;;;;;;5.30;3.90;;;;;;;25.71;37.04;100073.68;108874;1282;22222;-80
2023/06/17 09:24:20;;;;;;;4.20;3.70;;;;;;;25.48;37.68;100071.90;108790;1282;23861;-83
2023/06/17 09:27:25;;;;;;;4.30;3.90;;;;;;;25.35;37.90;100065.95;108871;1279;21998;-83
2023/06/17 09:30:36;;;;;;;4.00;3.30;;;;;;;25.47;38.63;100064.62;108881;1279;22070;-84
2023/06/17 09:33:39;;;;;;;;;;;;;;;;;;;;;
2023/06/17 09:36:25;;;;;;;4.30;3.90;;;;;;;25.93;37.81;100060.02;108918;1278;21989;-84
2023/06/17 09:39:30;;;;;;;4.20;3.70;;;;;;;26.53;38.17;100051.55;109048;1275;21988;-81
2023/06/17 09:42:17;;;;;;;3.40;3.10;;;;;;;27.38;37.61;100054.42;109112;1279;22073;-83
2023/06/17 09:45:56;;;;;;;3.60;3.30;;;;;;;28.07;35.84;100054.19;108872;1277;24318;-82
2023/06/17 09:48:42;;;;;;;3.60;3.30;;;;;;;28.61;34.63;100053.86;108940;1279;22009;-82
2023/06/17 09:51:58;;;;;;;;;;;;;;;;;;;;;
2023/06/17 09:54:41;;;;;;;6.40;3.70;;;;;;;28.43;33.92;100053.37;108644;1285;22028;-81
2023/06/17 09:57:41;;;;;;;3.30;3.00;;;;;;;28.44;34.46;100055.98;108631;1286;22001;-81
2023/06/17 10:00:18;;;;;;;3.30;2.40;;;;;;;28.68;33.59;100055.47;108454;1289;22290;-81
2023/06/17 10:03:21;;;;;;;3.50;2.80;;;;;;;28.99;33.00;100055.46;108607;1285;22003;-81
2023/06/17 10:06:19;;;;;;;;;;;;;;;;;;;;;
2023/06/17 10:09:12;;;;;;;3.90;3.00;;;;;;;29.36;31.85;100048.80;108915;1274;23641;-84
2023/06/17 10:11:53;;;;;;;3.40;2.70;;;;;;;29.52;31.55;100046.29;109680;1274;22017;-83
2023/06/17 10:14:40;;;;;;;4.10;2.90;;;;;;;29.63;31.47;100042.41;109378;1274;22024;-81
2023/06/17 10:17:21;;;;;;;12.20;2.90;;;;;;;29.78;31.24;100042.25;108888;1279;22019;-82
2023/06/17 10:19:55;;;;;;;6.20;3.80;;;;;;;29.78;31.09;100041.14;109430;1273;22071;-81
2023/06/17 10:22:29;;;;;;;3.50;3.00;;;;;;;29.79;30.73;100041.16;109587;1272;21983;-80
2023/06/17 10:25:04;;;;;;;5.70;3.70;;;;;;;29.89;30.60;100037.98;109443;1273;23705;-80
2023/06/17 10:27:38;;;;;;;6.40;5.90;;;;;;;30.04;30.53;100032.38;109453;1273;21988;-80
2023/06/17 10:30:28;;;;;;;5.40;3.80;;;;;;;30.10;30.09;100030.28;109141;1277;22964;-82
2023/06/17 10:33:12;;;;;;;4.10;2.70;;;;;;;29.91;30.26;100030.20;109182;1273;22019;-80
2023/06/17 10:35:45;;;;;;;5.60;5.10;;;;;;;29.76;30.07;100029.65;109424;1273;22468;-79
2023/06/17 10:38:29;;;;;;;;;;;;;;;29.52;30.17;100028.59;109457;1268;23634;-82
2023/06/17 10:41:02;;;;;;;4.30;3.50;;;;;;;29.31;30.97;100026.61;109310;1278;21990;-79
2023/06/17 10:43:49;;;;;;;4.40;2.90;;;;;;;29.26;30.93;100029.60;109248;1277;22091;-83
2023/06/17 10:46:26;;;;;;;3.20;2.60;;;;;;;29.08;31.12;100030.23;109009;1277;21753;-81
2023/06/17 10:49:19;;;;;;;3.00;2.40;;;;;;;28.96;31.36;100029.96;109505;1273;22011;-84
2023/06/17 10:52:16;;;;;;;3.90;2.90;;;;;;;28.97;31.50;100029.69;109445;1273;23005;-81
2023/06/17 10:54:57;;;;;;;4.70;2.90;;;;;;;28.94;31.37;100026.84;109365;1267;21987;-80
2023/06/17 10:57:36;;;;;;;3.10;2.60;;;;;;;28.83;31.43;100021.52;109400;1273;23052;-83
2023/06/17 11:00:13;;;;;;;4.30;2.90;;;;;;;28.70;31.60;100024.34;109492;1273;23643;-82
2023/06/17 11:02:47;;;;;;;3.30;3.00;;;;;;;28.58;31.48;100017.82;109463;1272;22087;-81
2023/06/17 11:05:18;;;;;;;8.20;2.70;;;;;;;28.47;31.53;100017.55;109942;1265;22041;-83
2023/06/17 11:08:09;;;;;;;7.10;3.00;;;;;;;28.30;31.75;100016.31;110141;1268;23599;-83
2023/06/17 11:10:42;;;;;;;10.40;9.40;;;;;;;28.17;32.16;100019.25;110042;1268;22045;-78
2023/06/17 11:13:33;;;;;;;12.40;3.40;;;;;;;28.08;31.89;100016.37;110272;1267;21989;-84
2023/06/17 11:16:16;;;;;;;3.50;2.80;;;;;;;27.85;31.80;100020.45;110200;1268;22175;-87
2023/06/17 11:18:53;;;;;;;5.90;3.10;;;;;;;27.56;32.23;100023.46;109614;1273;22023;-84
2023/06/17 11:21:38;;;;;;;6.50;3.30;;;;;;;27.43;32.93;100022.20;109652;1271;21982;-83
2023/06/17 11:24:11;;;;;;;5.40;3.30;;;;;;;27.40;32.75;100021.91;109543;1270;21978;-86
2023/06/17 11:27:05;;;;;;;4.20;3.10;;;;;;;27.20;32.41;100020.35;109644;1271;22011;-84
2023/06/17 11:29:45;;;;;;;4.60;3.20;;;;;;;26.97;33.17;100017.79;109820;1272;22002;-82
2023/06/17 11:37:18;;;;;;;7.30;3.30;;;;;;;26.49;33.83;100022.58;110043;1271;23197;-83
2023/06/17 11:39:47;;;;;;;4.60;4.20;;;;;;;26.34;34.26;100018.89;109652;1271;22049;-82
2023/06/17 11:42:22;;;;;;;5.20;3.30;;;;;;;26.32;34.76;100018.23;109551;1271;21956;-82
2023/06/17 11:44:52;;;;;;;4.40;3.50;;;;;;;26.38;34.71;100020.48;110477;1266;23621;-81
2023/06/17 11:47:33;;;;;;;3.40;3.10;;;;;;;26.44;34.38;100021.15;110177;1266;22003;-82
2023/06/17 11:50:10;;;;;;;4.90;3.30;;;;;;;26.46;34.48;100020.02;110512;1266;21737;-83
2023/06/17 11:53:01;;;;;;;6.10;3.50;;;;;;;26.55;34.53;100023.30;110093;1266;22745;-82
2023/06/17 11:55:38;;;;;;;5.10;4.20;;;;;;;26.62;34.32;100019.52;110221;1266;23020;-82
2023/06/17 11:58:12;;;;;;;6.50;5.30;;;;;;;26.65;34.38;100020.44;109804;1267;21980;-82
2023/06/17 12:00:43;;;;;;;9.40;5.50;;;;;;;26.64;34.70;100018.06;109760;1268;22735;-83
2023/06/17 12:03:36;;;;;;;5.20;4.80;;;;;;;26.64;35.30;100016.14;109736;1271;22179;-84
2023/06/17 12:06:16;;;;;;;6.60;5.00;;;;;;;26.64;35.45;100015.93;109712;1267;21983;-83
2023/06/17 12:09:00;;;;;;;6.30;5.20;;;;;;;26.66;35.56;100014.48;109621;1271;21995;-82
2023/06/17 12:11:39;;;;;;;10.70;5.10;;;;;;;26.63;35.51;100016.05;109649;1271;23039;-84
2023/06/17 12:14:19;;;;;;;11.10;4.80;;;;;;;26.44;35.35;100019.71;109648;1271;23048;-85
2023/06/17 12:16:52;;;;;;;9.40;5.90;;;;;;;26.29;36.13;100018.36;109995;1266;21986;-86
2023/06/17 12:19:32;;;;;;;6.10;4.30;;;;;;;26.24;36.18;100014.59;110160;1266;21973;-85
2023/06/17 12:22:12;;;;;;;6.50;4.90;;;;;;;26.19;36.29;100018.85;110118;1266;22027;-82
2023/06/17 12:24:47;;;;;;;6.40;4.60;;;;;;;26.17;36.10;100014.82;109503;1272;21978;-82
2023/06/17 12:27:19;;;;;;;4.80;4.20;;;;;;;26.14;36.08;100009.83;109693;1272;23647;-83
2023/06/17 12:29:51;;;;;;;8.60;4.10;;;;;;;26.15;36.18;100002.05;109481;1272;23039;-78
2023/06/17 12:32:32;;;;;;;6.70;3.70;;;;;;;26.22;36.14;100001.73;109702;1273;21994;-83
2023/06/17 12:35:19;;;;;;;4.50;3.50;;;;;;;26.22;35.69;99999.84;109720;1273;23900;-82
2023/06/17 12:38:09;;;;;;;7.40;4.20;;;;;;;26.21;35.55;100000.11;109247;1276;22111;-81
2023/06/17 12:41:22;;;;;;;6.90;4.20;;;;;;;26.25;35.47;100001.43;106673;1280;2889404;-81
2023/06/17 12:44:17;;;;;;;6.80;3.70;;;;;;;26.12;35.06;99994.82;109024;1279;23767;-82
2023/06/17 12:47:11;;;;;;;4.60;4.20;;;;;;;25.97;35.39;99992.88;109175;1279;23043;-84
2023/06/17 12:49:42;;;;;;;6.70;3.70;;;;;;;25.94;35.38;99994.28;109087;1279;22477;-84
2023/06/17 12:52:13;;;;;;;;;;;;;;;25.89;35.39;99997.63;109045;1279;22435;-85
2023/06/17 12:55:05;;;;;;;4.90;3.50;;;;;;;25.71;35.51;99996.73;109053;1273;22087;-85
2023/06/17 12:57:39;;;;;;;13.10;11.80;;;;;;;25.64;35.53;99993.18;109064;1280;21995;-80
2023/06/17 13:00:10;;;;;;;4.00;3.60;;;;;;;25.63;36.00;99991.30;109096;1275;21982;-79